Time;durP1;ratioP1;P1;durP2;ratioP2;P2;SDS_P1;SDS_P2;PMS_P1;PMS_P2;Temp;Humidity;BMP_temperature;BMP_pressure;BME280_temperature;BME280_humidity;BME280_pressure;Samples;Min_cycle;Max_cycle;Signal;HPM_P1;HPM_P2
2023/03/30 00:02:23;;;;;;;5.23;2.70;;;19.50;45.40;;;;;;5037930;28;20923;-46
2023/03/30 00:04:50;;;;;;;8.97;2.63;;;19.60;45.80;;;;;;5050058;28;20837;-46
2023/03/30 00:07:16;;;;;;;6.10;3.33;;;19.70;46.50;;;;;;5035372;28;20451;-46
2023/03/30 00:09:42;;;;;;;9.63;3.10;;;19.80;46.80;;;;;;5036871;28;20519;-46
2023/03/30 00:12:12;;;;;;;6.43;2.60;;;19.50;46.80;;;;;;5038868;28;20531;-46
2023/03/30 00:14:40;;;;;;;9.27;2.77;;;19.40;47.10;;;;;;5037763;28;20215;-46
2023/03/30 00:17:06;;;;;;;10.10;3.60;;;19.40;46.80;;;;;;5051216;28;20527;-46
2023/03/30 00:19:32;;;;;;;5.73;2.90;;;19.60;46.90;;;;;;5043380;28;20443;-46
2023/03/30 00:21:58;;;;;;;14.57;2.40;;;19.80;46.80;;;;;;5038762;28;20442;-47
2023/03/30 00:24:24;;;;;;;8.20;3.13;;;19.90;46.30;;;;;;5036978;28;20203;-45
2023/03/30 00:26:49;;;;;;;12.57;3.17;;;19.80;46.00;;;;;;5030982;28;20710;-46
2023/03/30 00:29:15;;;;;;;9.17;2.63;;;19.80;46.40;;;;;;5042324;28;20531;-49
2023/03/30 00:31:41;;;;;;;8.17;2.40;;;19.90;46.50;;;;;;5032933;28;20235;-49
2023/03/30 00:34:07;;;;;;;13.30;2.47;;;19.80;46.30;;;;;;5036710;28;20447;-45
2023/03/30 00:36:36;;;;;;;9.13;2.93;;;19.80;46.20;;;;;;5037937;28;20712;-46
2023/03/30 00:39:05;;;;;;;9.43;2.77;;;19.90;46.20;;;;;;5040005;28;20201;-46
2023/03/30 00:41:34;;;;;;;7.63;2.67;;;19.80;45.80;;;;;;5037632;28;20455;-47
2023/03/30 00:44:06;;;;;;;3.53;2.10;;;19.70;45.70;;;;;;5048499;28;20454;-49
2023/03/30 00:46:32;;;;;;;11.60;2.73;;;19.70;46.40;;;;;;5043701;28;20481;-47
2023/03/30 00:49:03;;;;;;;13.60;3.23;;;19.80;46.30;;;;;;5035821;28;20446;-49
2023/03/30 00:51:32;;;;;;;5.53;2.40;;;19.90;46.20;;;;;;5036141;28;20482;-46
2023/03/30 00:54:14;;;;;;;4.90;2.40;;;19.80;46.10;;;;;;5039896;28;20489;-47
2023/03/30 00:56:40;;;;;;;6.03;2.93;;;19.80;46.80;;;;;;5042278;28;20454;-46
2023/03/30 00:59:07;;;;;;;9.27;2.70;;;19.50;47.30;;;;;;5039237;28;20442;-45
2023/03/30 01:01:37;;;;;;;8.40;2.70;;;19.30;47.80;;;;;;5041552;28;20212;-46
2023/03/30 01:04:04;;;;;;;7.40;2.73;;;19.40;47.60;;;;;;5041476;28;20537;-47
2023/03/30 01:06:31;;;;;;;15.47;3.30;;;19.50;47.60;;;;;;5040987;28;20446;-46
2023/03/30 01:08:57;;;;;;;9.63;2.70;;;19.80;47.00;;;;;;5040818;28;20485;-45
2023/03/30 01:11:23;;;;;;;6.07;2.27;;;19.90;46.60;;;;;;5038119;28;20491;-46
2023/03/30 01:13:55;;;;;;;4.87;2.63;;;20.10;46.80;;;;;;5047229;28;20439;-48
2023/03/30 01:16:26;;;;;;;7.50;2.80;;;20.00;47.20;;;;;;5043196;28;20447;-45
2023/03/30 01:19:11;;;;;;;7.73;3.00;;;20.10;47.20;;;;;;5038443;28;20439;-49
2023/03/30 01:21:58;;;;;;;11.30;2.60;;;20.00;47.20;;;;;;5031924;28;20868;-46
2023/03/30 01:24:47;;;;;;;6.30;2.80;;;20.00;47.30;;;;;;5044244;28;20465;-46
2023/03/30 01:27:47;;;;;;;8.60;3.20;;;20.10;47.10;;;;;;5043589;28;20461;-50
2023/03/30 01:30:24;;;;;;;13.97;4.10;;;20.10;46.80;;;;;;5032993;28;20450;-47
2023/03/30 01:33:18;;;;;;;10.40;3.03;;;20.10;47.70;;;;;;5035751;28;20485;-46
2023/03/30 01:36:22;;;;;;;13.17;3.77;;;20.10;48.20;;;;;;5037626;28;20794;-45
2023/03/30 01:39:20;;;;;;;6.60;3.13;;;20.10;48.00;;;;;;5042583;28;20447;-47
2023/03/30 01:41:52;;;;;;;6.00;2.80;;;20.10;48.10;;;;;;5035408;28;20447;-46
2023/03/30 01:44:33;;;;;;;5.00;2.70;;;19.90;49.40;;;;;;5050090;28;20855;-46
2023/03/30 01:47:36;;;;;;;5.10;2.73;;;19.90;49.40;;;;;;5046399;28;20466;-46
2023/03/30 01:50:05;;;;;;;8.10;3.67;;;19.70;49.90;;;;;;5046070;28;20620;-50
2023/03/30 01:52:53;;;;;;;10.27;3.43;;;19.20;50.90;;;;;;5035717;28;20486;-46
2023/03/30 01:55:28;;;;;;;6.10;3.23;;;19.30;51.30;;;;;;5046163;28;20852;-46
2023/03/30 01:58:26;;;;;;;9.07;3.80;;;19.30;51.40;;;;;;5037350;28;20450;-46
2023/03/30 02:00:53;;;;;;;7.50;3.23;;;19.40;51.30;;;;;;5034978;28;20450;-45
2023/03/30 02:03:27;;;;;;;10.73;3.10;;;19.40;51.40;;;;;;5036620;28;20823;-46
2023/03/30 02:05:57;;;;;;;10.50;4.43;;;19.50;51.10;;;;;;5049922;28;20443;-47
2023/03/30 02:08:28;;;;;;;10.73;3.57;;;19.30;51.10;;;;;;5038279;28;20447;-47
2023/03/30 02:10:57;;;;;;;12.33;2.87;;;19.50;51.20;;;;;;5036321;28;20994;-46
2023/03/30 02:13:26;;;;;;;6.40;2.43;;;19.50;51.70;;;;;;5043435;28;20483;-46
2023/03/30 02:16:00;;;;;;;7.27;2.87;;;19.60;51.50;;;;;;5052526;28;20415;-45
2023/03/30 02:18:26;;;;;;;12.00;2.87;;;19.50;51.70;;;;;;5039584;28;20443;-46
2023/03/30 02:20:52;;;;;;;13.80;2.80;;;19.50;51.90;;;;;;5049969;28;20450;-46
2023/03/30 02:23:21;;;;;;;9.23;2.70;;;19.50;52.10;;;;;;5043074;28;20478;-47
2023/03/30 02:25:48;;;;;;;7.20;2.47;;;19.50;52.30;;;;;;5039385;28;20474;-48
2023/03/30 02:28:15;;;;;;;8.87;2.63;;;19.50;52.30;;;;;;5051908;28;20442;-46
2023/03/30 02:30:43;;;;;;;9.03;3.07;;;19.50;52.50;;;;;;5049981;28;20446;-45
2023/03/30 02:33:24;;;;;;;10.00;3.50;;;19.20;52.70;;;;;;5049760;28;20478;-48
2023/03/30 02:36:08;;;;;;;8.20;3.00;;;19.10;53.50;;;;;;5049750;28;20450;-47
2023/03/30 02:38:44;;;;;;;7.30;2.70;;;19.20;53.60;;;;;;5049578;28;20512;-48
2023/03/30 02:41:22;;;;;;;7.10;3.13;;;19.20;53.80;;;;;;5041404;28;20461;-47
2023/03/30 02:44:23;;;;;;;11.40;2.83;;;19.10;54.10;;;;;;5051315;28;20538;-46
2023/03/30 02:47:05;;;;;;;6.90;3.10;;;18.90;54.30;;;;;;5042438;28;20438;-46
2023/03/30 02:49:46;;;;;;;7.77;2.83;;;18.80;54.70;;;;;;5041489;28;20502;-46
2023/03/30 02:52:24;;;;;;;9.90;3.00;;;18.80;54.90;;;;;;5036181;28;20509;-48
2023/03/30 02:54:58;;;;;;;8.60;3.97;;;18.90;54.80;;;;;;5048267;28;20478;-47
2023/03/30 02:57:29;;;;;;;7.00;3.47;;;18.80;55.10;;;;;;5047912;28;20435;-46
2023/03/30 03:00:16;;;;;;;10.57;3.53;;;18.90;55.20;;;;;;5040204;28;20947;-47
2023/03/30 03:02:48;;;;;;;10.93;3.17;;;18.90;55.20;;;;;;5040493;28;20435;-46
2023/03/30 03:05:15;;;;;;;10.93;3.73;;;18.80;55.60;;;;;;5041236;28;20939;-46
2023/03/30 03:07:41;;;;;;;12.13;3.37;;;18.60;56.40;;;;;;5036531;28;20442;-46
2023/03/30 03:10:07;;;;;;;13.17;3.40;;;18.80;56.90;;;;;;5037647;28;20444;-47
2023/03/30 03:12:33;;;;;;;22.07;3.87;;;18.90;57.00;;;;;;5041350;28;20236;-47
2023/03/30 03:15:02;;;;;;;6.43;2.83;;;18.90;57.50;;;;;;5040632;28;20447;-47
2023/03/30 03:17:33;;;;;;;8.60;3.47;;;18.80;58.10;;;;;;5039646;28;20454;-47
2023/03/30 03:20:00;;;;;;;11.00;3.17;;;18.60;58.60;;;;;;5040598;28;20508;-46
2023/03/30 03:22:26;;;;;;;12.93;5.00;;;18.20;59.90;;;;;;5046220;28;20471;-47
2023/03/30 03:24:51;;;;;;;10.03;3.10;;;18.20;60.50;;;;;;5049558;28;20489;-48
2023/03/30 03:27:17;;;;;;;7.30;3.27;;;18.30;60.30;;;;;;5038620;28;20292;-47
2023/03/30 03:29:43;;;;;;;11.90;3.90;;;18.40;60.20;;;;;;5038692;28;20200;-48
2023/03/30 03:32:08;;;;;;;12.90;3.10;;;18.30;60.90;;;;;;5037008;28;20216;-46
2023/03/30 03:34:34;;;;;;;10.63;3.80;;;18.10;60.70;;;;;;5032723;28;20278;-46
2023/03/30 03:36:59;;;;;;;8.50;3.33;;;18.20;60.60;;;;;;5033431;28;20946;-46
2023/03/30 03:39:25;;;;;;;8.90;3.63;;;18.30;60.50;;;;;;5035177;28;20550;-47
2023/03/30 03:41:51;;;;;;;15.97;3.80;;;18.40;60.50;;;;;;5043042;28;20282;-48
2023/03/30 03:44:17;;;;;;;11.20;3.13;;;18.20;60.70;;;;;;5042138;28;20443;-46
2023/03/30 03:46:42;;;;;;;11.30;3.23;;;17.90;62.00;;;;;;5037857;28;20196;-47
2023/03/30 03:49:08;;;;;;;12.43;3.70;;;17.60;63.20;;;;;;5034391;28;20232;-47
2023/03/30 03:51:34;;;;;;;12.07;3.50;;;17.50;64.00;;;;;;5049084;28;20213;-47
2023/03/30 03:54:00;;;;;;;10.47;3.33;;;17.40;64.80;;;;;;5047863;28;20777;-47
2023/03/30 03:56:26;;;;;;;9.00;3.47;;;17.40;65.40;;;;;;5032592;28;20456;-48
2023/03/30 03:58:52;;;;;;;10.20;3.70;;;17.60;65.20;;;;;;5031859;28;20623;-49
2023/03/30 04:01:18;;;;;;;10.47;2.90;;;17.60;64.60;;;;;;5044779;28;20566;-46
2023/03/30 04:03:44;;;;;;;11.90;3.43;;;17.70;64.00;;;;;;5032611;28;20530;-46
2023/03/30 04:06:10;;;;;;;12.63;3.20;;;17.50;64.00;;;;;;5043080;28;20200;-48
2023/03/30 04:08:36;;;;;;;8.93;4.00;;;17.40;64.80;;;;;;5051321;28;20419;-46
2023/03/30 04:11:20;;;;;;;14.93;4.03;;;17.40;64.40;;;;;;5047061;28;20988;-46
2023/03/30 04:13:47;;;;;;;8.00;3.03;;;17.50;64.00;;;;;;5047802;28;20546;-48
2023/03/30 04:16:12;;;;;;;8.20;3.20;;;17.40;64.60;;;;;;5034745;28;20503;-47
2023/03/30 04:18:40;;;;;;;15.67;3.70;;;17.60;64.30;;;;;;5043879;28;20530;-47
2023/03/30 04:21:06;;;;;;;15.90;3.60;;;17.70;63.60;;;;;;5049306;28;20271;-46
2023/03/30 04:23:33;;;;;;;13.43;4.17;;;17.70;62.90;;;;;;5045208;28;20435;-46
2023/03/30 04:26:00;;;;;;;7.73;4.33;;;17.60;63.40;;;;;;5046736;28;20444;-47
2023/03/30 04:28:31;;;;;;;8.40;2.60;;;17.80;63.10;;;;;;5034024;28;20471;-46
2023/03/30 04:31:02;;;;;;;18.10;3.70;;;17.80;62.70;;;;;;5043358;28;20440;-46
2023/03/30 04:33:28;;;;;;;10.37;3.33;;;17.80;63.20;;;;;;5036152;28;20497;-46
2023/03/30 04:35:54;;;;;;;5.40;2.80;;;17.80;62.90;;;;;;5033609;28;20435;-46
2023/03/30 04:38:22;;;;;;;11.10;3.33;;;18.20;62.00;;;;;;5047417;28;20952;-46
2023/03/30 04:40:49;;;;;;;10.57;3.63;;;18.30;62.50;;;;;;5033134;28;20205;-47
2023/03/30 04:43:18;;;;;;;14.23;4.10;;;18.30;61.40;;;;;;5041439;28;20450;-47
2023/03/30 04:45:51;;;;;;;11.23;4.10;;;18.20;61.50;;;;;;5042871;28;20447;-46
2023/03/30 04:48:18;;;;;;;10.33;3.53;;;18.20;61.80;;;;;;5038198;28;20432;-46
2023/03/30 04:50:45;;;;;;;8.50;2.83;;;18.30;62.00;;;;;;5040400;28;20943;-46
2023/03/30 04:53:11;;;;;;;8.83;3.70;;;18.30;61.50;;;;;;5040506;28;20482;-46
2023/03/30 04:55:37;;;;;;;15.90;4.33;;;18.30;61.50;;;;;;5038030;28;20489;-47
2023/03/30 04:58:02;;;;;;;12.00;4.30;;;18.40;60.90;;;;;;5043598;28;20467;-46
2023/03/30 05:00:28;;;;;;;7.40;3.20;;;18.50;60.90;;;;;;5042262;28;20644;-48
2023/03/30 05:02:54;;;;;;;12.43;4.17;;;18.60;60.40;;;;;;5034149;28;20181;-46
2023/03/30 05:05:20;;;;;;;9.80;3.10;;;18.60;60.40;;;;;;5044442;28;20225;-47
2023/03/30 05:07:45;;;;;;;19.17;4.10;;;18.60;60.50;;;;;;5049171;28;20215;-47
2023/03/30 05:10:11;;;;;;;17.90;4.20;;;18.50;60.90;;;;;;5036495;28;20204;-47
2023/03/30 05:12:37;;;;;;;10.20;4.60;;;18.30;62.10;;;;;;5049747;28;20788;-48
2023/03/30 05:15:03;;;;;;;7.93;3.90;;;18.20;63.00;;;;;;5046583;28;20232;-46
2023/03/30 05:17:32;;;;;;;11.13;4.00;;;18.00;63.60;;;;;;5035254;28;20184;-46
2023/03/30 05:19:58;;;;;;;11.80;4.67;;;17.90;64.40;;;;;;5037614;28;20474;-47
2023/03/30 05:22:24;;;;;;;12.90;4.00;;;17.70;65.60;;;;;;5043306;28;20826;-48
2023/03/30 05:24:51;;;;;;;13.43;4.40;;;17.70;65.80;;;;;;5049855;28;20450;-45
2023/03/30 05:27:16;;;;;;;13.93;4.70;;;17.40;66.70;;;;;;5048878;28;20197;-49
2023/03/30 05:29:42;;;;;;;16.93;4.23;;;17.30;67.10;;;;;;5043170;28;20788;-49
2023/03/30 05:32:08;;;;;;;16.33;4.17;;;17.20;67.60;;;;;;5041641;28;20236;-51
2023/03/30 05:34:34;;;;;;;7.60;3.97;;;17.10;68.60;;;;;;5049169;28;20224;-50
2023/03/30 05:37:00;;;;;;;19.93;3.93;;;16.90;69.40;;;;;;5037128;28;20625;-46
2023/03/30 05:39:26;;;;;;;14.33;4.30;;;16.90;69.50;;;;;;5039238;28;20273;-49
2023/03/30 05:41:52;;;;;;;11.50;4.43;;;17.00;69.30;;;;;;5040925;28;20215;-50
2023/03/30 05:44:17;;;;;;;16.80;4.00;;;17.10;69.40;;;;;;5040346;28;20443;-50
2023/03/30 05:46:43;;;;;;;17.53;4.60;;;17.00;69.80;;;;;;5050225;28;20461;-47
2023/03/30 05:49:09;;;;;;;11.43;3.67;;;16.90;69.80;;;;;;5047625;28;20280;-48
2023/03/30 05:51:35;;;;;;;11.53;3.80;;;16.60;71.20;;;;;;5045606;28;20236;-47
2023/03/30 05:54:01;;;;;;;11.30;3.50;;;16.70;71.30;;;;;;5054763;28;20232;-50
2023/03/30 05:56:26;;;;;;;9.30;3.73;;;16.80;71.00;;;;;;5053213;28;20203;-49
2023/03/30 05:58:52;;;;;;;13.37;3.50;;;16.80;70.90;;;;;;5052010;28;20800;-47
2023/03/30 06:01:19;;;;;;;8.73;3.90;;;17.00;69.80;;;;;;5049030;28;20204;-49
2023/03/30 06:03:46;;;;;;;9.13;4.13;;;17.20;68.70;;;;;;5049613;28;20349;-48
2023/03/30 06:06:12;;;;;;;14.87;4.60;;;17.20;68.10;;;;;;5051187;28;20504;-49
2023/03/30 06:08:39;;;;;;;9.13;3.30;;;17.30;67.50;;;;;;5040309;28;20198;-49
2023/03/30 06:11:05;;;;;;;10.50;2.87;;;17.40;67.20;;;;;;5046635;28;20533;-48
2023/03/30 06:13:31;;;;;;;10.50;4.77;;;17.60;66.20;;;;;;5049585;28;20489;-47
2023/03/30 06:15:56;;;;;;;10.13;3.90;;;17.70;65.90;;;;;;5046902;28;20426;-50
2023/03/30 06:18:22;;;;;;;11.50;3.60;;;18.00;64.90;;;;;;5052995;28;20234;-50
2023/03/30 06:20:48;;;;;;;14.43;4.17;;;18.00;65.10;;;;;;5043872;28;20193;-49
2023/03/30 06:23:15;;;;;;;12.70;4.43;;;18.30;64.60;;;;;;5042441;28;20200;-46
2023/03/30 06:25:44;;;;;;;10.90;4.97;;;18.40;63.70;;;;;;5055775;28;20443;-50
2023/03/30 06:28:10;;;;;;;8.83;3.67;;;18.60;63.30;;;;;;5051474;28;20470;-50
2023/03/30 06:30:37;;;;;;;15.97;5.17;;;18.60;63.40;;;;;;5047896;28;20941;-50
2023/03/30 06:33:02;;;;;;;10.20;3.47;;;18.60;63.20;;;;;;5043308;28;20232;-48
2023/03/30 06:35:28;;;;;;;9.93;3.70;;;18.70;63.20;;;;;;5044873;28;20486;-50
2023/03/30 06:37:54;;;;;;;12.70;4.10;;;18.60;62.90;;;;;;5047259;28;20250;-45
2023/03/30 06:40:19;;;;;;;10.20;3.43;;;18.40;63.40;;;;;;5047538;28;20197;-46
2023/03/30 06:42:45;;;;;;;17.03;4.60;;;18.20;63.30;;;;;;5052872;28;20487;-46
2023/03/30 06:45:11;;;;;;;8.43;3.50;;;18.50;62.90;;;;;;5039265;28;20599;-48
2023/03/30 06:47:40;;;;;;;15.33;4.10;;;18.40;62.90;;;;;;5043261;28;20531;-49
2023/03/30 06:50:06;;;;;;;11.77;3.90;;;18.40;63.30;;;;;;5031795;28;20424;-50
2023/03/30 06:52:36;;;;;;;14.60;4.53;;;18.30;63.00;;;;;;5049487;28;20577;-47
2023/03/30 06:55:05;;;;;;;9.83;3.97;;;18.10;64.10;;;;;;5051396;28;20513;-47
2023/03/30 06:57:31;;;;;;;10.33;4.23;;;18.00;64.60;;;;;;5050759;28;20439;-46
2023/03/30 06:59:56;;;;;;;8.73;4.23;;;18.20;64.60;;;;;;5048026;28;20450;-46
2023/03/30 07:02:24;;;;;;;10.47;4.63;;;18.30;64.80;;;;;;5042765;28;20440;-47
2023/03/30 07:04:50;;;;;;;12.97;4.23;;;18.20;65.30;;;;;;5035673;28;20200;-46
2023/03/30 07:07:16;;;;;;;10.23;4.40;;;18.30;65.00;;;;;;5042804;28;20439;-46
2023/03/30 07:09:42;;;;;;;16.93;4.57;;;18.30;65.40;;;;;;5039179;28;20514;-47
2023/03/30 07:12:08;;;;;;;9.43;3.43;;;18.00;65.20;;;;;;5042498;28;20590;-45
2023/03/30 07:14:33;;;;;;;10.57;4.20;;;17.80;65.70;;;;;;5038055;28;20524;-47
2023/03/30 07:16:59;;;;;;;10.10;4.43;;;17.60;66.20;;;;;;5030555;28;20197;-46
2023/03/30 07:19:24;;;;;;;10.60;3.30;;;17.50;66.90;;;;;;5046706;28;20665;-45
2023/03/30 07:21:50;;;;;;;9.27;3.67;;;17.70;67.60;;;;;;5041427;28;20319;-46
2023/03/30 07:24:15;;;;;;;9.70;4.13;;;17.80;67.20;;;;;;5040545;28;20200;-48
2023/03/30 07:26:41;;;;;;;12.53;4.27;;;17.70;67.40;;;;;;5044111;28;20217;-47
2023/03/30 07:29:07;;;;;;;12.47;3.13;;;17.70;69.30;;;;;;5042931;28;20605;-46
2023/03/30 07:31:33;;;;;;;8.70;3.80;;;17.80;69.40;;;;;;5040951;28;20212;-47
2023/03/30 07:34:00;;;;;;;8.17;3.57;;;17.60;70.20;;;;;;5045384;28;20447;-46
2023/03/30 07:36:26;;;;;;;11.17;3.90;;;17.50;71.60;;;;;;5046429;28;20671;-48
2023/03/30 07:38:52;;;;;;;11.30;4.10;;;17.30;72.50;;;;;;5034872;28;20443;-51
2023/03/30 07:41:18;;;;;;;7.73;3.83;;;17.30;73.00;;;;;;5044411;28;20504;-45
2023/03/30 07:43:44;;;;;;;8.77;4.27;;;17.30;73.30;;;;;;5036961;28;20438;-46
2023/03/30 07:46:11;;;;;;;9.57;3.90;;;17.50;73.10;;;;;;5035861;28;20555;-44
2023/03/30 07:48:37;;;;;;;8.80;3.37;;;17.50;72.30;;;;;;5039723;28;20196;-46
2023/03/30 07:51:05;;;;;;;10.53;4.10;;;17.50;72.50;;;;;;5040584;28;20871;-44
2023/03/30 07:53:32;;;;;;;15.00;4.10;;;17.60;71.90;;;;;;5043128;28;20486;-43
2023/03/30 07:55:58;;;;;;;8.10;3.70;;;17.50;72.00;;;;;;5040335;28;20520;-43
2023/03/30 07:58:23;;;;;;;12.23;4.37;;;17.60;72.00;;;;;;5046300;28;21074;-45
2023/03/30 08:00:49;;;;;;;8.87;3.80;;;17.80;71.30;;;;;;5042976;28;21095;-43
2023/03/30 08:03:15;;;;;;;15.60;5.37;;;17.80;71.30;;;;;;5044739;28;20565;-45
2023/03/30 08:05:41;;;;;;;8.43;4.00;;;18.00;71.00;;;;;;5040420;28;20708;-44
2023/03/30 08:08:06;;;;;;;12.73;4.70;;;18.10;70.70;;;;;;5049130;28;20214;-45
2023/03/30 08:10:33;;;;;;;9.60;5.50;;;18.20;70.30;;;;;;5041812;28;20452;-44
2023/03/30 08:12:59;;;;;;;11.13;4.40;;;18.30;70.00;;;;;;5035341;28;20632;-45
2023/03/30 08:15:25;;;;;;;9.40;3.43;;;18.30;69.90;;;;;;5040239;28;20457;-44
2023/03/30 08:17:51;;;;;;;9.83;3.73;;;18.30;69.90;;;;;;5038731;28;20471;-44
2023/03/30 08:20:16;;;;;;;6.77;3.73;;;18.40;69.70;;;;;;5040266;28;20470;-44
2023/03/30 08:22:42;;;;;;;16.30;7.33;;;18.40;69.90;;;;;;5046224;28;20268;-44
2023/03/30 08:25:08;;;;;;;5.47;3.80;;;18.40;69.70;;;;;;5042234;28;20196;-45
2023/03/30 08:27:33;;;;;;;8.20;4.03;;;18.40;69.70;;;;;;5040125;28;20197;-44
2023/03/30 08:29:59;;;;;;;9.67;3.70;;;18.40;69.90;;;;;;5043759;28;20231;-45
2023/03/30 08:32:25;;;;;;;11.20;4.90;;;18.40;69.90;;;;;;5041604;28;20704;-44
2023/03/30 08:34:52;;;;;;;8.47;4.50;;;18.30;70.40;;;;;;5039121;28;20604;-45
2023/03/30 08:37:18;;;;;;;13.00;4.80;;;18.30;70.70;;;;;;5046713;28;20455;-45
2023/03/30 08:39:44;;;;;;;9.03;4.17;;;18.30;70.80;;;;;;5047766;28;20454;-46
2023/03/30 08:42:20;;;;;;;9.43;4.17;;;18.40;70.70;;;;;;5040374;28;20205;-45
2023/03/30 08:44:51;;;;;;;9.03;4.03;;;18.50;70.50;;;;;;5037421;28;20486;-45
2023/03/30 08:47:28;;;;;;;12.47;5.23;;;18.60;70.40;;;;;;5044394;28;20956;-44
2023/03/30 08:50:16;;;;;;;7.83;4.00;;;18.60;70.20;;;;;;5041145;28;20522;-45
2023/03/30 08:52:42;;;;;;;7.00;3.50;;;18.70;70.20;;;;;;5038520;28;20548;-45
2023/03/30 08:55:25;;;;;;;9.17;4.53;;;18.70;69.50;;;;;;5044317;28;20451;-45
2023/03/30 08:58:18;;;;;;;6.47;3.93;;;18.50;70.50;;;;;;5040686;28;20435;-44
2023/03/30 09:00:55;;;;;;;11.33;4.93;;;18.20;71.60;;;;;;5041516;28;20509;-44
2023/03/30 09:03:37;;;;;;;11.07;4.30;;;17.80;73.60;;;;;;5032143;28;20442;-46
2023/03/30 09:06:36;;;;;;;17.73;4.90;;;17.50;76.00;;;;;;5046482;28;20534;-44
2023/03/30 09:09:02;;;;;;;10.30;4.90;;;17.50;75.90;;;;;;5047187;28;20439;-45
2023/03/30 09:11:35;;;;;;;8.00;4.80;;;17.30;76.50;;;;;;5032866;28;20533;-47
2023/03/30 09:14:05;;;;;;;8.87;4.37;;;17.20;77.70;;;;;;5041754;28;20466;-45
2023/03/30 09:16:56;;;;;;;11.80;4.57;;;16.90;79.40;;;;;;5042817;28;20446;-45
2023/03/30 09:19:33;;;;;;;11.93;5.40;;;16.70;81.00;;;;;;5041694;28;20467;-45
2023/03/30 09:22:04;;;;;;;8.23;4.37;;;16.60;81.60;;;;;;5046914;28;20976;-45
2023/03/30 09:24:30;;;;;;;5.73;3.20;;;16.50;81.10;;;;;;5039525;28;20445;-45
2023/03/30 09:26:56;;;;;;;5.40;3.30;;;16.50;80.80;;;;;;5029685;28;20436;-46
2023/03/30 09:29:32;;;;;;;10.80;3.60;;;16.90;79.50;;;;;;5032327;28;20439;-45
2023/03/30 09:32:26;;;;;;;7.87;2.97;;;17.20;77.40;;;;;;5037949;28;20224;-45
2023/03/30 09:35:06;;;;;;;5.87;3.00;;;17.30;75.50;;;;;;5030616;28;20873;-46
2023/03/30 09:37:33;;;;;;;3.10;2.47;;;17.40;73.90;;;;;;5028094;28;20793;-45
2023/03/30 09:40:12;;;;;;;4.00;2.37;;;17.60;73.00;;;;;;5033494;28;20465;-46
2023/03/30 09:42:51;;;;;;;5.80;2.80;;;17.70;71.60;;;;;;5030898;28;20478;-46
2023/03/30 09:45:24;;;;;;;6.30;2.50;;;17.90;71.00;;;;;;5035450;28;20434;-46
2023/03/30 09:47:49;;;;;;;8.13;3.40;;;18.00;70.40;;;;;;5043385;28;20442;-46
2023/03/30 09:50:19;;;;;;;8.70;3.03;;;18.00;69.80;;;;;;5047386;28;20914;-45
2023/03/30 09:52:55;;;;;;;8.13;3.27;;;17.90;69.90;;;;;;5049768;28;20783;-45
2023/03/30 09:55:21;;;;;;;4.50;2.90;;;18.00;69.90;;;;;;5044626;28;20463;-45
2023/03/30 09:57:49;;;;;;;5.93;2.87;;;17.90;69.40;;;;;;5029725;28;20467;-45
2023/03/30 10:00:28;;;;;;;7.03;3.10;;;17.60;70.70;;;;;;5037123;28;20197;-48
2023/03/30 10:02:56;;;;;;;5.23;3.23;;;17.70;71.10;;;;;;5031533;28;20540;-47
2023/03/30 10:05:21;;;;;;;7.30;3.57;;;17.60;71.50;;;;;;5030651;28;20474;-50
2023/03/30 10:07:55;;;;;;;7.60;3.03;;;17.80;71.20;;;;;;5034968;28;20448;-45
2023/03/30 10:10:35;;;;;;;5.70;2.80;;;17.90;71.00;;;;;;5049143;28;20200;-46
2023/03/30 10:13:18;;;;;;;5.40;3.10;;;18.00;70.40;;;;;;5050712;28;20574;-45
2023/03/30 10:15:47;;;;;;;8.70;4.40;;;18.00;70.30;;;;;;5033162;28;20452;-47
2023/03/30 10:18:22;;;;;;;6.03;3.70;;;18.10;71.50;;;;;;5036875;28;20576;-46
2023/03/30 10:21:14;;;;;;;5.87;2.93;;;18.00;70.10;;;;;;5038939;28;20522;-47
2023/03/30 10:23:42;;;;;;;5.43;3.20;;;17.90;68.50;;;;;;5039234;28;20446;-45
2023/03/30 10:26:18;;;;;;;8.93;2.97;;;18.00;68.30;;;;;;5052724;28;20450;-45
2023/03/30 10:28:56;;;;;;;4.03;2.67;;;17.60;67.50;;;;;;5045148;28;20436;-45
2023/03/30 10:31:24;;;;;;;3.47;2.50;;;17.50;66.80;;;;;;5036062;28;20466;-45
2023/03/30 10:33:56;;;;;;;7.27;2.57;;;17.80;66.50;;;;;;5050883;28;20549;-46
2023/03/30 10:36:28;;;;;;;4.10;2.77;;;18.00;66.60;;;;;;5041949;28;20443;-46
2023/03/30 10:38:53;;;;;;;6.30;2.80;;;18.10;66.70;;;;;;5035609;28;20422;-46
2023/03/30 10:41:22;;;;;;;5.47;2.40;;;18.30;66.30;;;;;;5034433;28;20451;-46
2023/03/30 10:43:49;;;;;;;4.80;2.60;;;18.30;66.20;;;;;;5036527;28;20591;-45
2023/03/30 10:46:21;;;;;;;4.63;2.63;;;18.30;66.60;;;;;;5047168;28;20471;-46
2023/03/30 10:48:58;;;;;;;2.70;2.50;;;18.40;66.10;;;;;;5035387;28;20431;-45
2023/03/30 10:51:37;;;;;;;4.53;2.83;;;18.50;65.80;;;;;;5033506;28;20442;-46
2023/03/30 10:54:11;;;;;;;4.13;3.53;;;18.60;65.80;;;;;;5050830;28;20487;-46
2023/03/30 10:56:46;;;;;;;5.10;2.73;;;18.70;66.10;;;;;;5048089;28;20447;-45
2023/03/30 10:59:50;;;;;;;3.30;3.00;;;18.70;66.00;;;;;;5034178;28;20444;-46
2023/03/30 11:02:25;;;;;;;7.73;3.20;;;18.70;65.80;;;;;;4999066;28;20451;-46
2023/03/30 11:05:21;;;;;;;11.10;3.10;;;18.80;65.70;;;;;;5037730;28;20453;-46
2023/03/30 11:08:28;;;;;;;3.70;2.90;;;18.70;65.30;;;;;;5047099;28;20455;-45
2023/03/30 11:10:57;;;;;;;7.10;3.47;;;18.50;65.00;;;;;;5040352;28;20540;-45
2023/03/30 11:13:29;;;;;;;7.87;3.50;;;18.30;65.80;;;;;;5045696;28;20494;-47
2023/03/30 11:16:07;;;;;;;8.83;3.30;;;18.20;66.40;;;;;;5032615;28;20977;-46
2023/03/30 11:18:47;;;;;;;6.27;3.00;;;18.30;66.60;;;;;;5042387;28;20446;-47
2023/03/30 11:21:49;;;;;;;4.30;2.80;;;18.40;66.00;;;;;;5037595;28;20446;-45
2023/03/30 11:24:17;;;;;;;6.03;3.00;;;18.50;66.20;;;;;;5028148;28;21590;-46
2023/03/30 11:27:13;;;;;;;7.83;3.30;;;18.50;65.70;;;;;;5036542;28;20492;-45
2023/03/30 11:29:56;;;;;;;9.37;3.57;;;18.60;65.50;;;;;;5044101;28;20522;-45
2023/03/30 11:32:33;;;;;;;3.50;2.93;;;18.60;65.80;;;;;;5040902;28;20996;-46
2023/03/30 11:35:16;;;;;;;4.83;3.20;;;18.60;66.00;;;;;;5038425;28;20498;-45
2023/03/30 11:38:16;;;;;;;5.10;3.07;;;18.80;66.10;;;;;;5051113;28;20457;-47
2023/03/30 11:40:50;;;;;;;5.00;3.30;;;18.90;65.60;;;;;;5048871;28;20462;-45
2023/03/30 11:43:18;;;;;;;3.77;2.60;;;18.60;66.00;;;;;;5049107;28;20447;-45
2023/03/30 11:46:00;;;;;;;6.60;3.17;;;18.60;65.70;;;;;;5035419;28;20435;-45
2023/03/30 11:48:42;;;;;;;4.60;3.63;;;18.70;66.30;;;;;;5040287;28;20958;-45
2023/03/30 11:51:24;;;;;;;4.67;2.97;;;18.60;65.40;;;;;;5040870;28;20949;-46
2023/03/30 11:53:59;;;;;;;4.70;2.63;;;18.60;67.30;;;;;;5046840;28;20479;-45
2023/03/30 11:56:35;;;;;;;5.10;3.07;;;18.80;66.60;;;;;;5038394;28;21227;-47
2023/03/30 11:59:27;;;;;;;8.07;2.57;;;18.80;65.80;;;;;;5047677;28;20469;-45
2023/03/30 12:02:07;;;;;;;6.37;3.70;;;18.90;64.10;;;;;;5031580;28;20440;-47
2023/03/30 12:04:49;;;;;;;6.30;3.53;;;19.20;64.10;;;;;;5040763;28;20533;-46
2023/03/30 12:07:32;;;;;;;4.53;3.13;;;19.10;64.20;;;;;;5043084;28;20459;-46
2023/03/30 12:10:02;;;;;;;7.00;3.20;;;19.10;64.80;;;;;;5044364;28;20447;-46
2023/03/30 12:12:35;;;;;;;3.17;2.70;;;19.00;63.80;;;;;;5044855;28;20548;-45
2023/03/30 12:15:18;;;;;;;3.33;3.03;;;18.70;63.20;;;;;;5041906;28;20418;-47
2023/03/30 12:17:52;;;;;;;4.47;2.50;;;18.40;63.00;;;;;;5037539;28;20451;-46
2023/03/30 12:20:36;;;;;;;4.80;3.07;;;18.00;65.30;;;;;;5044809;28;20447;-46
2023/03/30 12:23:29;;;;;;;5.43;2.70;;;18.00;66.40;;;;;;5038146;28;20507;-45
2023/03/30 12:26:12;;;;;;;5.30;3.60;;;18.00;65.10;;;;;;5039377;28;20454;-47
2023/03/30 12:29:17;;;;;;;6.70;3.00;;;17.90;65.70;;;;;;5041597;28;20478;-48
2023/03/30 12:31:55;;;;;;;5.70;2.60;;;17.90;65.60;;;;;;5029533;28;20497;-45
2023/03/30 12:34:23;;;;;;;4.10;2.87;;;18.30;65.70;;;;;;5048578;28;20958;-45
2023/03/30 12:37:17;;;;;;;4.37;2.90;;;18.40;64.50;;;;;;5043794;28;20497;-46
2023/03/30 12:39:50;;;;;;;8.17;3.03;;;18.60;64.60;;;;;;5040630;28;21022;-45
2023/03/30 12:42:33;;;;;;;8.87;3.10;;;18.50;63.70;;;;;;5042704;28;20999;-45
2023/03/30 12:44:58;;;;;;;5.73;3.43;;;18.60;63.80;;;;;;5035540;28;20455;-46
2023/03/30 12:47:42;;;;;;;5.50;3.20;;;18.50;62.90;;;;;;5041356;28;20452;-45
2023/03/30 12:50:27;;;;;;;5.70;3.20;;;18.50;64.10;;;;;;5042925;28;20199;-44
2023/03/30 12:53:10;;;;;;;6.37;3.10;;;18.60;61.90;;;;;;5040293;28;20916;-44
2023/03/30 12:56:00;;;;;;;4.27;3.20;;;18.50;61.10;;;;;;5042380;28;20853;-45
2023/03/30 12:58:38;;;;;;;4.37;2.87;;;18.50;61.00;;;;;;5031220;28;20460;-45
2023/03/30 13:01:15;;;;;;;7.27;2.87;;;18.60;61.10;;;;;;5036967;28;20544;-45
2023/03/30 13:03:51;;;;;;;6.63;3.70;;;18.70;60.90;;;;;;5031406;28;20440;-45
2023/03/30 13:06:33;;;;;;;6.27;3.70;;;19.10;60.70;;;;;;5042388;28;20818;-45
2023/03/30 13:09:22;;;;;;;7.70;3.47;;;19.30;58.60;;;;;;5039051;28;20953;-49